createdAt,value
2023-03-28T00:01:01.616Z,-0.23
2023-03-28T00:03:29.870Z,-0.23
2023-03-28T00:06:02.662Z,-0.22
2023-03-28T00:08:30.251Z,-0.20
2023-03-28T00:11:15.696Z,-0.26
2023-03-28T00:13:42.612Z,-0.40
2023-03-28T00:16:13.169Z,-0.37
2023-03-28T00:18:41.666Z,-0.56
2023-03-28T00:21:20.563Z,-0.48
2023-03-28T00:23:52.651Z,-0.47
2023-03-28T00:26:20.902Z,-0.51
2023-03-28T00:28:48.660Z,-0.54
2023-03-28T00:31:15.970Z,-0.45
2023-03-28T00:33:44.419Z,-0.63
2023-03-28T00:36:11.420Z,-0.66
2023-03-28T00:38:39.104Z,-0.70
2023-03-28T00:41:09.942Z,-0.63
2023-03-28T00:43:39.600Z,-0.57
2023-03-28T00:46:30.013Z,-0.74
2023-03-28T00:49:11.193Z,-0.77
2023-03-28T00:51:45.245Z,-0.75
2023-03-28T00:54:16.187Z,-0.82
2023-03-28T00:56:47.539Z,-0.85
2023-03-28T00:59:19.439Z,-0.93
2023-03-28T01:01:47.537Z,-0.97
2023-03-28T01:04:20.670Z,-1.01
2023-03-28T01:06:52.310Z,-1.02
2023-03-28T01:09:21.308Z,-1.00
2023-03-28T01:11:49.373Z,-1.00
2023-03-28T01:14:20.860Z,-0.84
2023-03-28T01:16:48.089Z,-1.17
2023-03-28T01:19:27.433Z,-1.13
2023-03-28T01:22:25.832Z,-1.14
2023-03-28T01:25:30.078Z,-1.33
2023-03-28T01:28:10.630Z,-1.42
2023-03-28T01:30:56.657Z,-1.43
2023-03-28T01:33:29.665Z,-1.55
2023-03-28T01:36:34.061Z,-1.58
2023-03-28T01:39:05.494Z,-1.70
2023-03-28T01:41:46.379Z,-1.72
2023-03-28T01:44:33.434Z,-1.77
2023-03-28T01:47:22.662Z,-1.83
2023-03-28T01:50:03.486Z,-1.85
2023-03-28T01:52:41.413Z,-1.86
2023-03-28T01:55:12.440Z,-1.85
2023-03-28T01:57:53.458Z,-1.93
2023-03-28T02:00:24.558Z,-2.11
2023-03-28T02:03:00.911Z,-2.04
2023-03-28T02:05:31.887Z,-2.07
2023-03-28T02:08:01.644Z,-2.16
2023-03-28T02:10:31.968Z,-2.12
2023-03-28T02:13:12.737Z,-2.30
2023-03-28T02:15:42.893Z,-1.99
2023-03-28T02:18:20.819Z,-2.07
2023-03-28T02:20:54.777Z,-2.16
2023-03-28T02:23:27.280Z,-2.23
2023-03-28T02:25:54.258Z,-2.38
2023-03-28T02:28:22.742Z,-2.36
2023-03-28T02:30:50.206Z,-2.55
2023-03-28T02:33:41.735Z,-2.44
2023-03-28T02:36:27.741Z,-2.42
2023-03-28T02:39:32.143Z,-2.39
2023-03-28T02:42:07.871Z,-2.34
2023-03-28T02:44:37.830Z,-2.27
2023-03-28T02:47:11.134Z,-2.22
2023-03-28T02:49:56.201Z,-2.30
2023-03-28T02:52:40.421Z,-2.40
2023-03-28T02:55:33.882Z,-2.17
2023-03-28T02:58:11.765Z,-2.08
2023-03-28T03:00:39.954Z,-1.98
2023-03-28T03:03:10.707Z,-1.84
2023-03-28T03:05:38.351Z,-1.69
2023-03-28T03:08:05.572Z,-1.74
2023-03-28T03:10:32.449Z,-1.72
2023-03-28T03:12:59.507Z,-1.85
2023-03-28T03:15:31.130Z,-1.99
2023-03-28T03:17:59.449Z,-2.14
2023-03-28T03:20:27.710Z,-2.19
2023-03-28T03:22:55.709Z,-2.27
2023-03-28T03:25:22.576Z,-2.32
2023-03-28T03:27:49.469Z,-2.39
2023-03-28T03:30:16.378Z,-2.40
2023-03-28T03:32:44.409Z,-2.57
2023-03-28T03:35:11.657Z,-2.29
2023-03-28T03:37:39.036Z,-2.30
2023-03-28T03:40:06.898Z,-2.19
2023-03-28T03:42:33.995Z,-2.43
2023-03-28T03:45:01.068Z,-2.94
2023-03-28T03:47:28.029Z,-2.85
2023-03-28T03:49:54.951Z,-2.76
2023-03-28T03:52:21.988Z,-2.69
2023-03-28T03:54:48.787Z,-2.59
2023-03-28T03:57:15.851Z,-2.39
2023-03-28T03:59:42.788Z,-2.35
2023-03-28T04:02:09.675Z,-2.39
2023-03-28T04:04:37.198Z,-2.42
2023-03-28T04:07:04.196Z,-2.43
2023-03-28T04:09:31.934Z,-2.58
2023-03-28T04:11:58.668Z,-2.51
2023-03-28T04:14:25.454Z,-2.56
2023-03-28T04:16:54.091Z,-2.45
2023-03-28T04:19:21.423Z,-2.42
2023-03-28T04:21:49.335Z,-2.35
2023-03-28T04:24:16.713Z,-2.32
2023-03-28T04:26:46.033Z,-2.10
2023-03-28T04:29:13.240Z,-2.26
2023-03-28T04:31:40.449Z,-2.20
2023-03-28T04:34:07.769Z,-2.08
2023-03-28T04:36:34.859Z,-2.14
2023-03-28T04:39:05.013Z,-2.14
2023-03-28T04:41:34.635Z,-2.28
2023-03-28T04:44:01.843Z,-2.30
2023-03-28T04:46:31.713Z,-2.37
2023-03-28T04:48:58.704Z,-2.37
2023-03-28T04:51:25.833Z,-2.40
2023-03-28T04:53:52.650Z,-2.45
2023-03-28T04:56:19.815Z,-2.36
2023-03-28T04:58:46.829Z,-2.42
2023-03-28T05:01:14.021Z,-2.45
2023-03-28T05:03:41.241Z,-2.43
2023-03-28T05:06:08.494Z,-2.35
2023-03-28T05:08:35.395Z,-2.10
2023-03-28T05:11:02.741Z,-2.12
2023-03-28T05:13:30.256Z,-2.31
2023-03-28T05:15:57.282Z,-2.09
2023-03-28T05:18:24.419Z,-2.02
2023-03-28T05:20:51.750Z,-1.99
2023-03-28T05:23:18.670Z,-1.97
2023-03-28T05:25:53.555Z,-1.89
2023-03-28T05:28:21.490Z,-1.84
2023-03-28T05:30:48.389Z,-1.69
2023-03-28T05:33:15.617Z,-1.51
2023-03-28T05:35:42.750Z,-1.35
2023-03-28T05:38:09.766Z,-1.23
2023-03-28T05:40:37.444Z,-1.15
2023-03-28T05:43:04.779Z,-0.69
2023-03-28T05:45:31.720Z,-0.11
2023-03-28T05:47:58.693Z,0.43
2023-03-28T05:50:26.603Z,1.21
2023-03-28T05:52:53.597Z,1.99
2023-03-28T05:55:20.489Z,1.44
2023-03-28T05:57:47.421Z,1.34
2023-03-28T06:00:15.202Z,1.30
2023-03-28T06:02:43.554Z,2.41
2023-03-28T06:05:14.261Z,4.14
2023-03-28T06:07:42.929Z,5.37
2023-03-28T06:10:12.124Z,6.54
2023-03-28T06:12:39.453Z,6.87
2023-03-28T06:15:07.570Z,6.97
2023-03-28T06:17:34.815Z,6.80
2023-03-28T06:20:01.742Z,6.61
2023-03-28T06:22:29.250Z,6.36
2023-03-28T06:24:56.277Z,5.98
2023-03-28T06:27:23.267Z,5.55
2023-03-28T06:29:50.738Z,4.83
2023-03-28T06:32:19.333Z,5.29
2023-03-28T06:34:46.564Z,7.52
2023-03-28T06:37:13.540Z,10.34
2023-03-28T06:39:40.986Z,13.34
2023-03-28T06:42:08.233Z,14.95
2023-03-28T06:44:35.262Z,14.86
2023-03-28T06:47:02.933Z,15.07
2023-03-28T06:49:29.999Z,14.39
2023-03-28T06:51:59.845Z,14.60
2023-03-28T06:54:26.819Z,14.34
2023-03-28T06:56:53.777Z,13.19
2023-03-28T06:59:20.872Z,12.32
2023-03-28T07:01:47.876Z,12.19
2023-03-28T07:04:14.785Z,13.11
2023-03-28T07:06:41.686Z,13.48
2023-03-28T07:09:08.772Z,14.97
2023-03-28T07:11:35.608Z,16.75
2023-03-28T07:14:02.575Z,18.68
2023-03-28T07:16:31.940Z,20.25
2023-03-28T07:18:58.866Z,20.71
2023-03-28T07:21:25.812Z,20.11
2023-03-28T07:23:52.662Z,18.78
2023-03-28T07:26:19.713Z,17.36
2023-03-28T07:28:46.870Z,15.92
2023-03-28T07:31:13.874Z,14.74
2023-03-28T07:33:41.082Z,14.32
2023-03-28T07:36:17.155Z,13.98
2023-03-28T07:38:46.560Z,15.14
2023-03-28T07:41:15.106Z,17.19
2023-03-28T07:43:42.300Z,18.41
2023-03-28T07:46:11.566Z,19.77
2023-03-28T07:48:38.940Z,20.85
2023-03-28T07:51:10.380Z,20.79
2023-03-28T07:53:38.186Z,20.69
2023-03-28T07:56:10.813Z,19.69
2023-03-28T07:58:39.272Z,17.98
2023-03-28T08:01:12.503Z,18.87
2023-03-28T08:03:40.648Z,17.81
2023-03-28T08:06:28.788Z,16.35
2023-03-28T08:08:58.315Z,15.94
2023-03-28T08:11:25.325Z,14.90
2023-03-28T08:13:52.427Z,14.02
2023-03-28T08:16:19.589Z,12.99
2023-03-28T08:18:48.765Z,11.91
2023-03-28T08:21:21.442Z,11.76
2023-03-28T08:23:48.622Z,11.81
2023-03-28T08:26:15.604Z,12.50
2023-03-28T08:28:42.461Z,14.07
2023-03-28T08:31:14.599Z,14.78
2023-03-28T08:33:43.490Z,15.27
2023-03-28T08:36:15.213Z,15.80
2023-03-28T08:38:43.327Z,16.47
2023-03-28T08:41:29.301Z,17.85
2023-03-28T08:44:14.234Z,21.33
2023-03-28T08:46:44.518Z,22.22
2023-03-28T08:49:20.704Z,18.30
2023-03-28T08:51:59.680Z,16.25
2023-03-28T08:54:31.958Z,13.19
2023-03-28T08:57:03.093Z,11.91
2023-03-28T08:59:40.945Z,10.98
2023-03-28T09:02:27.031Z,10.51
2023-03-28T09:05:02.118Z,10.53
2023-03-28T09:07:57.694Z,14.49
2023-03-28T09:10:42.713Z,20.55
2023-03-28T09:13:26.257Z,26.08
2023-03-28T09:16:03.386Z,30.26
2023-03-28T09:19:15.658Z,33.56
2023-03-28T09:22:04.913Z,35.08
2023-03-28T09:24:39.805Z,34.03
2023-03-28T09:27:18.436Z,30.92
2023-03-28T09:29:47.597Z,28.13
2023-03-28T09:32:26.912Z,24.98
2023-03-28T09:34:53.932Z,22.70
2023-03-28T09:37:41.087Z,20.13
2023-03-28T09:40:23.096Z,17.99
2023-03-28T09:43:09.373Z,15.98
2023-03-28T09:45:36.421Z,14.16
2023-03-28T09:48:06.416Z,13.93
2023-03-28T09:50:33.347Z,14.21
2023-03-28T09:53:00.465Z,13.84
2023-03-28T09:55:30.196Z,13.19
2023-03-28T09:58:06.761Z,12.57
2023-03-28T10:00:40.566Z,13.10
2023-03-28T10:03:23.583Z,13.65
2023-03-28T10:05:51.942Z,14.32
2023-03-28T10:08:37.100Z,16.23
2023-03-28T10:11:07.167Z,18.39
2023-03-28T10:13:40.791Z,18.83
2023-03-28T10:16:10.680Z,18.48
2023-03-28T10:18:40.937Z,16.78
2023-03-28T10:21:21.187Z,15.54
2023-03-28T10:24:08.297Z,15.49
2023-03-28T10:26:35.393Z,16.94
2023-03-28T10:29:06.497Z,20.89
2023-03-28T10:31:34.240Z,27.50
2023-03-28T10:34:05.933Z,31.97
2023-03-28T10:36:40.480Z,34.34
2023-03-28T10:39:33.785Z,34.33
2023-03-28T10:42:02.134Z,34.85
2023-03-28T10:44:37.008Z,34.57
2023-03-28T10:47:08.685Z,33.51
2023-03-28T10:49:47.477Z,29.57
2023-03-28T10:52:52.663Z,29.39
2023-03-28T10:55:26.828Z,28.45
2023-03-28T10:58:11.728Z,30.70
2023-03-28T11:00:43.208Z,29.50
2023-03-28T11:03:30.080Z,30.04
2023-03-28T11:06:19.566Z,32.51
2023-03-28T11:09:04.046Z,33.70
2023-03-28T11:11:46.497Z,34.51
2023-03-28T11:14:25.934Z,32.65
2023-03-28T11:17:27.624Z,29.42
2023-03-28T11:20:17.776Z,26.60
2023-03-28T11:23:06.327Z,24.17
2023-03-28T11:25:55.258Z,22.10
2023-03-28T11:28:31.371Z,18.94
2023-03-28T11:31:00.839Z,17.29
2023-03-28T11:34:18.200Z,15.40
2023-03-28T11:37:04.227Z,14.38
2023-03-28T11:39:44.054Z,13.67
2023-03-28T11:42:27.834Z,12.31
2023-03-28T11:45:08.195Z,10.97
2023-03-28T11:47:45.361Z,10.34
2023-03-28T11:50:38.435Z,9.69
2023-03-28T11:53:13.717Z,8.92
2023-03-28T11:55:49.346Z,8.41
2023-03-28T11:58:26.625Z,8.01
2023-03-28T12:01:19.579Z,8.55
2023-03-28T12:04:08.172Z,9.09
2023-03-28T12:06:52.163Z,9.86
2023-03-28T12:09:54.529Z,10.12
2023-03-28T12:12:55.669Z,10.06
2023-03-28T12:15:47.411Z,9.65
2023-03-28T12:18:26.536Z,9.81
2023-03-28T12:21:04.086Z,9.63
2023-03-28T12:23:33.917Z,9.56
2023-03-28T12:26:13.328Z,10.03
2023-03-28T12:28:43.956Z,10.62
2023-03-28T12:31:22.604Z,11.37
2023-03-28T12:34:02.772Z,11.89
2023-03-28T12:37:02.683Z,11.95
2023-03-28T12:39:56.015Z,11.52
2023-03-28T12:42:25.229Z,10.29
2023-03-28T12:45:04.465Z,10.30
2023-03-28T12:47:43.300Z,10.07
2023-03-28T12:50:25.304Z,9.82
2023-03-28T12:52:53.506Z,9.83
2023-03-28T12:55:29.373Z,9.85
2023-03-28T12:58:28.731Z,9.71
2023-03-28T13:01:07.551Z,8.69
2023-03-28T13:03:58.518Z,8.48
2023-03-28T13:06:28.603Z,8.53
2023-03-28T13:09:30.152Z,8.86
2023-03-28T13:12:21.287Z,9.53
2023-03-28T13:15:27.921Z,10.21
2023-03-28T13:18:22.518Z,11.02
2023-03-28T13:20:52.199Z,11.68
2023-03-28T13:23:27.588Z,12.11
2023-03-28T13:26:00.781Z,12.34
2023-03-28T13:28:51.348Z,12.25
2023-03-28T13:31:18.281Z,12.29
2023-03-28T13:34:01.964Z,12.48
2023-03-28T13:36:34.115Z,12.87
2023-03-28T13:39:19.037Z,13.62
2023-03-28T13:41:45.928Z,13.97
2023-03-28T13:44:16.489Z,14.19
2023-03-28T13:46:47.785Z,14.05
2023-03-28T13:49:19.299Z,13.71
2023-03-28T13:51:49.222Z,13.11
2023-03-28T13:54:16.507Z,12.52
2023-03-28T13:56:46.974Z,12.26
2023-03-28T13:59:19.609Z,12.45
2023-03-28T14:01:54.145Z,12.38
2023-03-28T14:04:27.972Z,12.84
2023-03-28T14:06:55.894Z,12.61
2023-03-28T14:09:28.860Z,12.11
2023-03-28T14:12:00.526Z,12.27
2023-03-28T14:14:37.936Z,12.06
2023-03-28T14:17:07.990Z,11.89
2023-03-28T14:19:44.866Z,11.52
2023-03-28T14:22:21.368Z,11.03
2023-03-28T14:24:52.256Z,11.05
2023-03-28T14:27:41.033Z,11.55
2023-03-28T14:30:31.198Z,11.91
2023-03-28T14:33:18.730Z,12.16
2023-03-28T14:35:57.634Z,12.24
2023-03-28T14:38:32.501Z,12.14
2023-03-28T14:41:08.822Z,12.08
2023-03-28T14:43:36.872Z,11.60
2023-03-28T14:46:08.363Z,11.50
2023-03-28T14:48:37.306Z,11.79
2023-03-28T14:51:06.126Z,11.97
2023-03-28T14:53:41.341Z,11.93
2023-03-28T14:56:11.703Z,11.54
2023-03-28T14:58:45.169Z,11.39
2023-03-28T15:01:23.656Z,11.34
2023-03-28T15:04:00.182Z,11.37
2023-03-28T15:06:30.741Z,11.51
2023-03-28T15:09:10.059Z,11.08
2023-03-28T15:11:41.512Z,10.72
2023-03-28T15:14:24.482Z,10.15
2023-03-28T15:16:54.353Z,9.68
2023-03-28T15:19:29.116Z,9.64
2023-03-28T15:22:04.466Z,10.01
2023-03-28T15:24:32.181Z,9.95
2023-03-28T15:27:04.000Z,10.17
2023-03-28T15:29:35.989Z,10.47
2023-03-28T15:32:11.948Z,10.58
2023-03-28T15:35:06.098Z,10.64
2023-03-28T15:37:45.071Z,10.64
2023-03-28T15:40:22.552Z,10.80
2023-03-28T15:42:51.191Z,10.95
2023-03-28T15:45:24.624Z,10.98
2023-03-28T15:47:55.986Z,11.03
2023-03-28T15:50:33.572Z,11.08
2023-03-28T15:53:05.966Z,11.22
2023-03-28T15:55:34.293Z,11.23
2023-03-28T15:58:04.050Z,10.38
2023-03-28T16:00:55.479Z,10.30
2023-03-28T16:03:25.155Z,10.42
2023-03-28T16:06:10.196Z,10.04
2023-03-28T16:08:41.359Z,9.90
2023-03-28T16:11:26.984Z,9.43
2023-03-28T16:13:54.277Z,9.24
2023-03-28T16:16:29.848Z,9.25
2023-03-28T16:18:56.719Z,9.35
2023-03-28T16:21:23.388Z,9.44
2023-03-28T16:23:50.287Z,9.41
2023-03-28T16:26:17.130Z,9.39
2023-03-28T16:28:48.726Z,9.34
2023-03-28T16:31:15.946Z,9.25
2023-03-28T16:33:42.928Z,9.05
2023-03-28T16:36:12.940Z,8.66
2023-03-28T16:38:43.080Z,8.25
2023-03-28T16:41:09.950Z,8.06
2023-03-28T16:43:38.397Z,8.31
2023-03-28T16:46:05.756Z,8.04
2023-03-28T16:48:34.690Z,8.24
2023-03-28T16:51:08.379Z,8.08
2023-03-28T16:53:37.053Z,8.18
2023-03-28T16:56:07.082Z,8.22
2023-03-28T16:58:33.970Z,8.19
2023-03-28T17:01:08.053Z,7.97
2023-03-28T17:03:36.258Z,8.31
2023-03-28T17:06:10.053Z,8.08
2023-03-28T17:08:37.210Z,8.06
2023-03-28T17:11:09.470Z,7.86
2023-03-28T17:13:37.566Z,7.59
2023-03-28T17:16:05.000Z,7.61
2023-03-28T17:18:32.179Z,7.37
2023-03-28T17:21:07.328Z,7.43
2023-03-28T17:23:38.958Z,7.14
2023-03-28T17:26:08.837Z,6.85
2023-03-28T17:28:39.269Z,6.75
2023-03-28T17:31:12.239Z,6.63
2023-03-28T17:33:42.626Z,6.67
2023-03-28T17:36:29.915Z,6.52
2023-03-28T17:39:00.706Z,6.35
2023-03-28T17:41:28.236Z,6.30
2023-03-28T17:43:57.185Z,6.12
2023-03-28T17:46:24.949Z,6.04
2023-03-28T17:48:52.137Z,5.76
2023-03-28T17:51:19.355Z,5.85
2023-03-28T17:53:47.304Z,5.64
2023-03-28T17:56:16.736Z,5.54
2023-03-28T17:58:44.612Z,5.49
2023-03-28T18:01:17.522Z,5.41
2023-03-28T18:03:46.260Z,5.29
2023-03-28T18:06:14.154Z,5.49
2023-03-28T18:08:42.870Z,5.40
2023-03-28T18:11:14.292Z,5.33
2023-03-28T18:13:41.413Z,5.25
2023-03-28T18:16:11.240Z,5.29
2023-03-28T18:18:39.006Z,5.19
2023-03-28T18:21:08.550Z,5.17
2023-03-28T18:23:36.360Z,5.09
2023-03-28T18:26:04.035Z,4.92
2023-03-28T18:28:31.098Z,5.07
2023-03-28T18:31:07.433Z,4.98
2023-03-28T18:33:35.517Z,4.99
2023-03-28T18:36:02.694Z,5.08
2023-03-28T18:38:29.639Z,5.14
2023-03-28T18:40:57.486Z,5.03
2023-03-28T18:43:24.378Z,5.05
2023-03-28T18:45:55.182Z,5.08
2023-03-28T18:48:22.280Z,4.91
2023-03-28T18:50:49.337Z,5.14
2023-03-28T18:53:16.993Z,4.98
2023-03-28T18:55:44.115Z,4.97
2023-03-28T18:58:11.869Z,4.98
2023-03-28T19:00:38.885Z,4.97
2023-03-28T19:03:06.174Z,4.85
2023-03-28T19:05:39.093Z,4.97
2023-03-28T19:08:06.125Z,4.98
2023-03-28T19:10:32.870Z,4.84
2023-03-28T19:12:59.784Z,4.89
2023-03-28T19:15:27.259Z,4.90
2023-03-28T19:17:54.213Z,5.09
2023-03-28T19:20:21.233Z,5.21
2023-03-28T19:22:48.291Z,5.09
2023-03-28T19:25:16.356Z,5.12
2023-03-28T19:27:43.945Z,5.08
2023-03-28T19:30:11.000Z,5.15
2023-03-28T19:32:38.053Z,5.02
2023-03-28T19:35:05.426Z,5.01
2023-03-28T19:37:32.384Z,4.91
2023-03-28T19:39:59.493Z,4.90
2023-03-28T19:42:26.537Z,5.07
2023-03-28T19:44:54.495Z,5.10
2023-03-28T19:47:22.197Z,5.06
2023-03-28T19:49:49.579Z,4.95
2023-03-28T19:52:16.319Z,5.01
2023-03-28T19:54:43.384Z,4.97
2023-03-28T19:57:10.437Z,4.94
2023-03-28T19:59:37.470Z,5.02
2023-03-28T20:02:04.407Z,5.03
2023-03-28T20:04:31.940Z,5.17
2023-03-28T20:06:58.905Z,5.17
2023-03-28T20:09:26.094Z,5.14
2023-03-28T20:11:53.274Z,5.17
2023-03-28T20:14:21.479Z,5.11
2023-03-28T20:16:48.782Z,5.11
2023-03-28T20:19:18.293Z,4.97
2023-03-28T20:21:45.454Z,4.95
2023-03-28T20:24:12.590Z,5.03
2023-03-28T20:26:40.124Z,5.13
2023-03-28T20:29:10.393Z,5.02
2023-03-28T20:31:37.600Z,4.96
2023-03-28T20:34:04.674Z,4.82
2023-03-28T20:36:33.004Z,4.89
2023-03-28T20:39:01.691Z,4.95
2023-03-28T20:41:29.865Z,4.92
2023-03-28T20:44:03.726Z,4.93
2023-03-28T20:46:38.339Z,4.91
2023-03-28T20:49:06.524Z,5.01
2023-03-28T20:51:36.907Z,4.98
2023-03-28T20:54:05.442Z,5.10
2023-03-28T20:56:32.639Z,4.95
2023-03-28T20:58:59.782Z,5.07
2023-03-28T21:01:30.810Z,5.04
2023-03-28T21:03:59.139Z,5.02
2023-03-28T21:06:30.028Z,5.04
2023-03-28T21:09:01.991Z,5.06
2023-03-28T21:11:31.554Z,5.04
2023-03-28T21:14:00.237Z,5.04
2023-03-28T21:16:29.300Z,5.04
2023-03-28T21:18:56.776Z,5.10
2023-03-28T21:21:23.904Z,4.94
2023-03-28T21:23:53.344Z,4.96
2023-03-28T21:26:23.530Z,5.10
2023-03-28T21:28:52.641Z,5.15
2023-03-28T21:31:28.422Z,5.02
2023-03-28T21:33:59.967Z,5.06
2023-03-28T21:36:28.014Z,5.03
2023-03-28T21:38:56.301Z,4.85
2023-03-28T21:41:23.736Z,4.91
2023-03-28T21:43:53.017Z,4.80
2023-03-28T21:46:20.992Z,4.98
2023-03-28T21:48:48.754Z,5.05
2023-03-28T21:51:17.625Z,4.96
2023-03-28T21:53:44.924Z,5.03
2023-03-28T21:56:16.646Z,5.04
2023-03-28T21:58:43.833Z,4.99
2023-03-28T22:01:14.554Z,4.99
2023-03-28T22:03:41.725Z,4.87
2023-03-28T22:06:09.592Z,4.82
2023-03-28T22:08:36.846Z,4.83
2023-03-28T22:11:11.097Z,4.75
2023-03-28T22:13:39.109Z,4.61
2023-03-28T22:16:09.604Z,4.61
2023-03-28T22:18:39.176Z,4.58
2023-03-28T22:21:06.570Z,4.54
2023-03-28T22:23:33.815Z,4.64
2023-03-28T22:26:00.857Z,4.65
2023-03-28T22:28:27.706Z,4.55
2023-03-28T22:30:55.790Z,4.46
2023-03-28T22:33:23.712Z,4.33
2023-03-28T22:35:51.057Z,4.26
2023-03-28T22:38:19.632Z,4.10
2023-03-28T22:40:47.780Z,4.07
2023-03-28T22:43:16.389Z,3.99
2023-03-28T22:45:43.345Z,3.97
2023-03-28T22:48:16.444Z,3.96
2023-03-28T22:50:44.629Z,3.99
2023-03-28T22:55:39.762Z,3.74
2023-03-28T22:58:06.834Z,3.64
2023-03-28T23:00:34.438Z,3.77
2023-03-28T23:03:01.968Z,3.85
2023-03-28T23:05:29.200Z,3.88
2023-03-28T23:07:56.301Z,4.00
2023-03-28T23:10:29.024Z,3.82
2023-03-28T23:12:56.898Z,3.98
2023-03-28T23:15:24.036Z,4.13
2023-03-28T23:17:51.010Z,3.88
2023-03-28T23:20:19.255Z,3.94
2023-03-28T23:22:48.047Z,3.94
2023-03-28T23:25:17.346Z,3.91
2023-03-28T23:27:44.816Z,3.91
2023-03-28T23:30:14.043Z,3.93
2023-03-28T23:32:41.009Z,3.87
2023-03-28T23:35:10.016Z,3.97
2023-03-28T23:37:38.533Z,4.08
2023-03-28T23:40:06.715Z,4.28
2023-03-28T23:42:33.636Z,4.28
2023-03-28T23:45:00.931Z,4.09
2023-03-28T23:47:27.944Z,4.26
2023-03-28T23:49:54.668Z,4.07
2023-03-28T23:52:21.768Z,3.79
2023-03-28T23:54:48.865Z,3.89
2023-03-28T23:57:15.740Z,4.06
2023-03-28T23:59:42.596Z,3.78
